Time;durP1;ratioP1;P1;durP2;ratioP2;P2;SDS_P1;SDS_P2;PMS_P1;PMS_P2;Temp;Humidity;BMP_temperature;BMP_pressure;BME280_temperature;BME280_humidity;BME280_pressure;Samples;Min_cycle;Max_cycle;Signal;HPM_P1;HPM_P2
2024/01/25 00:00:01;;;;;;;24.43;4.47;;;7.90;99.90;;;;;;5003129;28;20273;-87
2024/01/25 00:02:27;;;;;;;24.53;4.30;;;7.90;99.90;;;;;;4985927;28;20250;-86
2024/01/25 00:04:52;;;;;;;21.33;4.43;;;7.90;99.90;;;;;;4977997;28;20196;-86
2024/01/25 00:07:18;;;;;;;24.07;4.33;;;7.90;99.90;;;;;;4997685;28;20196;-87
2024/01/25 00:09:44;;;;;;;28.07;4.47;;;8.00;99.90;;;;;;4983634;28;20188;-87
2024/01/25 00:12:11;;;;;;;15.03;3.50;;;7.90;99.90;;;;;;4990030;28;20643;-87
2024/01/25 00:14:37;;;;;;;23.57;5.63;;;7.90;99.90;;;;;;4992208;28;20207;-86
2024/01/25 00:17:03;;;;;;;25.43;4.20;;;7.90;99.90;;;;;;4994865;28;20632;-87
2024/01/25 00:19:28;;;;;;;22.70;4.83;;;7.80;99.90;;;;;;4994961;28;20207;-86
2024/01/25 00:21:54;;;;;;;21.10;3.93;;;7.90;99.90;;;;;;4978399;28;20658;-87
2024/01/25 00:24:20;;;;;;;23.03;4.23;;;7.90;99.90;;;;;;4993921;28;20192;-88
2024/01/25 00:26:46;;;;;;;19.90;3.67;;;8.00;99.90;;;;;;4993939;28;20187;-86
2024/01/25 00:29:12;;;;;;;29.60;4.80;;;8.00;99.90;;;;;;4998684;28;20186;-87
2024/01/25 00:31:38;;;;;;;26.47;4.60;;;7.90;99.90;;;;;;4989224;28;20826;-86
2024/01/25 00:34:04;;;;;;;24.17;3.87;;;7.90;99.90;;;;;;4986620;28;20191;-87
2024/01/25 00:36:30;;;;;;;22.10;4.67;;;8.00;99.90;;;;;;5000169;28;20284;-88
2024/01/25 00:38:56;;;;;;;26.20;4.70;;;8.00;99.90;;;;;;4986497;28;20275;-86
2024/01/25 00:41:23;;;;;;;22.73;3.97;;;8.00;99.90;;;;;;4986724;28;20211;-87
2024/01/25 00:43:49;;;;;;;24.63;3.90;;;8.00;99.90;;;;;;4986212;28;20190;-86
2024/01/25 00:46:16;;;;;;;17.17;4.70;;;8.00;99.90;;;;;;4998112;28;20208;-88
2024/01/25 00:48:42;;;;;;;23.37;4.03;;;8.00;99.90;;;;;;4992381;28;20555;-88
2024/01/25 00:51:11;;;;;;;21.87;4.10;;;7.90;99.90;;;;;;5000996;28;20188;-88
2024/01/25 00:53:37;;;;;;;21.10;4.13;;;8.00;99.90;;;;;;5002785;28;20295;-88
2024/01/25 00:56:04;;;;;;;23.47;4.53;;;7.90;99.90;;;;;;5364752;23;20727;-90
2024/01/25 00:58:30;;;;;;;23.40;4.67;;;8.00;99.90;;;;;;5029070;28;20202;-90
2024/01/25 01:00:56;;;;;;;28.40;4.93;;;7.90;99.90;;;;;;5031641;28;20182;-89
2024/01/25 01:03:22;;;;;;;23.57;4.00;;;8.00;99.90;;;;;;5020190;28;20191;-89
2024/01/25 01:05:48;;;;;;;26.77;4.80;;;8.00;99.90;;;;;;5034078;28;20263;-89
2024/01/25 01:08:21;;;;;;;23.23;4.03;;;7.90;99.90;;;;;;5034106;28;20509;-89
2024/01/25 01:10:47;;;;;;;24.10;4.53;;;8.00;99.90;;;;;;5033492;28;20865;-91
2024/01/25 01:13:13;;;;;;;28.00;4.03;;;7.90;99.90;;;;;;5033944;28;20229;-92
2024/01/25 01:15:39;;;;;;;25.83;4.27;;;7.90;99.90;;;;;;5025740;28;20190;-89
2024/01/25 01:18:06;;;;;;;26.43;4.23;;;7.90;99.90;;;;;;5033658;28;20193;-93
2024/01/25 01:20:32;;;;;;;20.50;3.77;;;7.90;99.90;;;;;;5033852;28;20194;-88
2024/01/25 01:22:58;;;;;;;23.37;4.23;;;7.80;99.90;;;;;;5031239;28;20217;-91
2024/01/25 01:25:23;;;;;;;25.03;4.93;;;7.80;99.90;;;;;;5028925;28;20190;-90
2024/01/25 01:28:03;;;;;;;26.10;4.07;;;7.70;99.90;;;;;;5030638;28;20522;-91
2024/01/25 01:30:29;;;;;;;19.53;4.10;;;7.60;99.90;;;;;;5030377;28;20182;-88
2024/01/25 01:32:55;;;;;;;24.37;4.23;;;7.80;99.90;;;;;;5031784;28;20272;-89
2024/01/25 01:35:20;;;;;;;25.93;3.80;;;7.90;99.90;;;;;;5014224;28;20190;-89
2024/01/25 01:38:03;;;;;;;26.03;4.30;;;7.90;99.90;;;;;;5030948;28;20182;-91
2024/01/25 01:40:29;;;;;;;27.90;5.03;;;7.90;99.90;;;;;;5033662;28;20554;-90
2024/01/25 01:43:02;;;;;;;28.77;4.57;;;8.00;99.90;;;;;;5021765;28;20219;-89
2024/01/25 01:45:28;;;;;;;27.00;5.00;;;7.80;99.90;;;;;;5019621;28;20296;-90
2024/01/25 01:48:08;;;;;;;24.47;4.43;;;7.90;99.90;;;;;;5033335;28;20290;-93
2024/01/25 01:50:34;;;;;;;21.80;4.50;;;7.90;99.90;;;;;;5033883;28;20191;-87
2024/01/25 01:53:00;;;;;;;24.50;4.70;;;8.00;99.90;;;;;;5034636;28;20236;-89
2024/01/25 01:55:27;;;;;;;26.10;5.03;;;7.90;99.90;;;;;;5028638;28;20187;-92
2024/01/25 01:57:54;;;;;;;20.47;4.70;;;7.90;99.90;;;;;;5025252;28;20190;-90
2024/01/25 02:00:21;;;;;;;22.87;3.97;;;7.90;99.90;;;;;;5031255;28;20189;-89
2024/01/25 02:02:47;;;;;;;26.23;4.57;;;7.90;99.90;;;;;;5036998;28;20241;-90
2024/01/25 02:05:13;;;;;;;17.93;3.77;;;7.90;99.90;;;;;;5037391;28;20190;-94
2024/01/25 02:07:40;;;;;;;21.90;3.80;;;7.90;99.90;;;;;;5037139;28;20191;-94
2024/01/25 02:10:07;;;;;;;21.67;4.07;;;7.90;99.90;;;;;;5036999;28;20202;-90
2024/01/25 02:12:33;;;;;;;21.00;3.57;;;7.90;99.90;;;;;;5028426;28;20221;-91
2024/01/25 02:14:59;;;;;;;25.73;4.00;;;7.90;99.90;;;;;;5034195;28;20233;-91
2024/01/25 02:17:25;;;;;;;18.77;3.80;;;7.70;99.90;;;;;;5023360;28;20190;-90
2024/01/25 02:19:51;;;;;;;23.97;4.97;;;7.70;99.90;;;;;;5028298;28;20195;-90
2024/01/25 02:22:19;;;;;;;16.53;4.43;;;7.70;99.90;;;;;;5023164;28;20229;-89
2024/01/25 02:24:45;;;;;;;19.30;4.23;;;7.70;99.90;;;;;;5025670;28;20186;-93
2024/01/25 02:27:18;;;;;;;22.83;3.90;;;7.70;99.90;;;;;;5032027;28;20202;-91
2024/01/25 02:29:44;;;;;;;18.53;4.30;;;7.70;99.90;;;;;;5034286;28;20183;-87
2024/01/25 02:32:10;;;;;;;24.80;4.93;;;7.70;99.90;;;;;;5025220;28;20194;-91
2024/01/25 02:34:36;;;;;;;22.20;4.37;;;7.70;99.90;;;;;;5032841;28;20194;-90
2024/01/25 02:37:02;;;;;;;24.00;4.90;;;7.70;99.90;;;;;;5036999;28;20193;-90
2024/01/25 02:39:41;;;;;;;22.03;4.77;;;7.70;99.90;;;;;;5036303;28;20278;-94
2024/01/25 02:42:07;;;;;;;27.30;4.57;;;7.70;99.90;;;;;;5036154;28;20261;-91
2024/01/25 02:44:33;;;;;;;24.67;4.80;;;7.70;99.90;;;;;;5037895;28;20182;-90
2024/01/25 02:47:01;;;;;;;30.60;4.50;;;7.70;99.90;;;;;;5034809;28;20262;-91
2024/01/25 02:49:27;;;;;;;26.60;4.63;;;7.70;99.90;;;;;;5024634;28;20198;-90
2024/01/25 02:51:52;;;;;;;22.87;4.40;;;7.70;99.90;;;;;;5034698;28;20190;-90
2024/01/25 02:54:18;;;;;;;24.50;3.93;;;7.70;99.90;;;;;;5030973;28;20198;-90
2024/01/25 02:56:44;;;;;;;22.63;4.07;;;7.50;99.90;;;;;;5016054;28;20317;-90
2024/01/25 02:59:13;;;;;;;23.47;3.77;;;7.70;99.90;;;;;;5016896;28;20188;-91
2024/01/25 03:01:43;;;;;;;21.83;4.07;;;7.60;99.90;;;;;;5024388;28;20218;-90
2024/01/25 03:04:09;;;;;;;24.90;4.10;;;7.60;99.90;;;;;;5032255;28;20218;-91
2024/01/25 03:06:35;;;;;;;25.43;4.10;;;7.60;99.90;;;;;;5024535;28;20573;-92
2024/01/25 03:09:06;;;;;;;27.07;4.10;;;7.60;99.90;;;;;;5035659;28;20228;-91
2024/01/25 03:11:32;;;;;;;21.37;3.67;;;7.60;99.90;;;;;;5036105;28;20281;-89
2024/01/25 03:13:58;;;;;;;24.67;4.37;;;7.60;99.90;;;;;;5035437;28;20272;-91
2024/01/25 03:16:24;;;;;;;26.43;4.07;;;7.50;99.90;;;;;;5035523;28;20195;-90
2024/01/25 03:18:50;;;;;;;28.27;4.67;;;7.40;99.90;;;;;;5027136;28;20527;-90
2024/01/25 03:21:16;;;;;;;26.43;4.07;;;7.40;99.90;;;;;;5035267;28;20218;-93
2024/01/25 03:23:42;;;;;;;20.23;4.50;;;7.50;99.90;;;;;;5035938;28;20187;-90
2024/01/25 03:26:08;;;;;;;21.00;4.60;;;7.50;99.90;;;;;;5034539;28;20193;-90
2024/01/25 03:28:44;;;;;;;24.13;4.40;;;7.50;99.90;;;;;;5035646;28;20190;-93
2024/01/25 03:31:10;;;;;;;25.53;4.07;;;7.60;99.90;;;;;;5021145;28;20193;-95
2024/01/25 03:33:36;;;;;;;26.87;5.33;;;7.60;99.90;;;;;;5035436;28;20301;-91
2024/01/25 03:36:03;;;;;;;24.70;3.80;;;7.50;99.90;;;;;;5035178;28;20277;-89
2024/01/25 03:38:29;;;;;;;27.70;4.27;;;7.40;99.90;;;;;;5035288;28;20194;-89
2024/01/25 03:40:56;;;;;;;29.27;4.40;;;7.40;99.90;;;;;;5033021;28;20191;-90
2024/01/25 03:43:23;;;;;;;21.83;3.93;;;7.50;99.90;;;;;;5024326;28;20213;-92
2024/01/25 03:45:49;;;;;;;23.93;3.50;;;7.50;99.90;;;;;;5016786;28;20219;-90
2024/01/25 03:48:15;;;;;;;25.63;4.57;;;7.40;99.90;;;;;;5030638;28;20614;-92
2024/01/25 03:50:43;;;;;;;24.73;3.80;;;7.50;99.90;;;;;;5023561;28;20201;-91
2024/01/25 03:53:09;;;;;;;27.40;4.20;;;7.50;99.90;;;;;;5035073;28;20194;-90
2024/01/25 03:55:35;;;;;;;18.27;3.87;;;7.50;99.90;;;;;;5034407;28;20186;-91
2024/01/25 03:58:01;;;;;;;24.30;4.47;;;7.50;99.90;;;;;;5035374;28;20216;-91
2024/01/25 04:00:27;;;;;;;28.67;4.53;;;7.50;99.90;;;;;;5034988;28;20193;-90
2024/01/25 04:02:52;;;;;;;22.63;4.23;;;7.40;99.90;;;;;;5026284;28;20334;-90
2024/01/25 04:05:18;;;;;;;27.53;4.27;;;7.40;99.90;;;;;;5029912;28;20629;-92
2024/01/25 04:07:44;;;;;;;22.97;4.50;;;7.50;99.90;;;;;;5032370;28;20206;-91
2024/01/25 04:10:10;;;;;;;22.57;4.23;;;7.50;99.90;;;;;;5035946;28;20174;-90
2024/01/25 04:12:36;;;;;;;26.07;4.73;;;7.40;99.90;;;;;;5034493;28;20194;-92
2024/01/25 04:15:03;;;;;;;26.60;5.17;;;7.40;99.90;;;;;;5034993;28;20182;-92
2024/01/25 04:17:29;;;;;;;24.67;4.33;;;7.40;99.90;;;;;;5034679;28;20182;-90
2024/01/25 04:19:55;;;;;;;27.03;4.83;;;7.40;99.90;;;;;;5033532;28;20186;-89
2024/01/25 04:22:21;;;;;;;26.67;5.27;;;7.30;99.90;;;;;;5034985;28;20237;-91
2024/01/25 04:24:49;;;;;;;27.60;4.57;;;7.40;99.90;;;;;;5025975;28;20555;-88
2024/01/25 04:27:15;;;;;;;25.77;5.33;;;7.40;99.90;;;;;;5024825;28;20186;-92
2024/01/25 04:29:54;;;;;;;17.23;3.60;;;7.50;99.90;;;;;;5026628;28;20271;-91
2024/01/25 04:32:20;;;;;;;24.60;4.53;;;7.50;99.90;;;;;;5034630;28;20505;-91
2024/01/25 04:34:48;;;;;;;33.60;4.27;;;7.50;99.90;;;;;;5034719;28;20617;-90
2024/01/25 04:37:14;;;;;;;23.60;4.27;;;7.50;99.90;;;;;;5035124;28;20182;-91
2024/01/25 04:43:02;;;;;;;25.53;4.70;;;7.40;99.90;;;;;;5026134;28;20249;-93
2024/01/25 04:45:28;;;;;;;21.20;4.20;;;7.40;99.90;;;;;;5026220;28;20194;-91
2024/01/25 04:47:54;;;;;;;26.67;4.77;;;7.40;99.90;;;;;;5025965;28;20195;-89
2024/01/25 04:50:27;;;;;;;26.33;4.03;;;7.50;99.90;;;;;;5034066;28;20186;-90
2024/01/25 04:52:53;;;;;;;23.47;4.47;;;7.40;99.90;;;;;;5033288;28;20265;-90
2024/01/25 04:55:20;;;;;;;18.53;4.07;;;7.30;99.90;;;;;;5028059;28;20225;-90
2024/01/25 04:57:47;;;;;;;22.70;3.93;;;7.40;99.90;;;;;;5032275;28;20280;-89
2024/01/25 05:00:14;;;;;;;24.63;4.27;;;7.40;99.90;;;;;;5026773;28;20206;-88
2024/01/25 05:02:40;;;;;;;23.57;5.13;;;7.30;99.90;;;;;;5025591;28;20747;-87
2024/01/25 05:05:05;;;;;;;27.30;4.57;;;7.30;99.90;;;;;;5014145;28;20207;-90
2024/01/25 05:07:31;;;;;;;22.43;3.57;;;7.40;99.90;;;;;;5029355;28;20197;-90
2024/01/25 05:10:04;;;;;;;25.77;4.40;;;7.30;99.90;;;;;;5025598;28;20178;-89
2024/01/25 05:12:29;;;;;;;26.37;4.90;;;7.20;99.90;;;;;;5034003;28;20182;-90
2024/01/25 05:14:55;;;;;;;28.13;4.40;;;7.30;99.90;;;;;;5025806;28;20190;-91
2024/01/25 05:17:21;;;;;;;26.83;4.17;;;7.20;99.90;;;;;;5034050;28;20534;-90
2024/01/25 05:19:48;;;;;;;22.17;3.97;;;7.20;99.90;;;;;;5034082;28;20225;-93
2024/01/25 05:22:14;;;;;;;24.60;4.43;;;7.20;99.90;;;;;;5033666;28;20233;-89
2024/01/25 05:24:40;;;;;;;25.50;4.60;;;7.20;99.90;;;;;;5033540;28;20186;-88
2024/01/25 05:27:05;;;;;;;27.00;4.80;;;7.20;99.90;;;;;;5025466;28;20212;-91
2024/01/25 05:29:31;;;;;;;24.73;4.20;;;7.20;99.90;;;;;;5033638;28;20202;-86
2024/01/25 05:31:59;;;;;;;27.00;4.40;;;7.10;99.90;;;;;;5029347;28;20209;-89
2024/01/25 05:34:25;;;;;;;29.03;4.60;;;7.00;99.90;;;;;;5037662;28;20245;-89
2024/01/25 05:36:50;;;;;;;24.77;3.90;;;7.10;99.90;;;;;;5037503;28;20202;-89
2024/01/25 05:39:17;;;;;;;25.60;4.50;;;7.10;99.90;;;;;;5037198;28;20633;-91
2024/01/25 05:41:45;;;;;;;28.87;4.00;;;7.00;99.90;;;;;;5038246;28;20214;-91
2024/01/25 05:44:12;;;;;;;23.27;4.30;;;7.10;99.90;;;;;;5037385;28;20189;-88
2024/01/25 05:46:38;;;;;;;18.43;3.53;;;7.20;99.90;;;;;;5029419;28;20273;-87
2024/01/25 05:49:03;;;;;;;26.40;4.70;;;7.10;99.90;;;;;;5037281;28;20273;-89
2024/01/25 05:51:29;;;;;;;20.93;4.03;;;7.00;99.90;;;;;;5022055;28;20186;-90
2024/01/25 05:53:56;;;;;;;17.37;3.40;;;7.00;99.90;;;;;;5019568;28;20626;-89
2024/01/25 05:56:22;;;;;;;27.80;4.67;;;7.00;99.90;;;;;;5030286;28;20661;-86
2024/01/25 05:58:47;;;;;;;16.60;3.50;;;7.00;99.90;;;;;;5025905;28;20506;-91
2024/01/25 06:01:15;;;;;;;30.33;4.53;;;7.00;99.90;;;;;;5036517;28;20182;-89
2024/01/25 06:03:41;;;;;;;19.60;4.13;;;7.00;99.90;;;;;;5028457;28;20625;-91
2024/01/25 06:06:10;;;;;;;28.73;4.83;;;6.90;99.90;;;;;;5028793;28;20191;-89
2024/01/25 06:08:35;;;;;;;25.33;4.73;;;6.90;99.90;;;;;;5029616;28;20191;-89
2024/01/25 06:11:06;;;;;;;21.03;3.80;;;6.90;99.90;;;;;;5027751;28;20194;-88
2024/01/25 06:13:32;;;;;;;24.80;4.33;;;6.90;99.90;;;;;;5036558;28;20198;-89
2024/01/25 06:15:58;;;;;;;18.80;3.83;;;6.80;99.90;;;;;;5036775;28;20530;-88
2024/01/25 06:18:24;;;;;;;26.80;3.80;;;6.90;99.90;;;;;;5030964;28;20187;-90
2024/01/25 06:20:51;;;;;;;23.77;4.20;;;6.90;99.90;;;;;;5034619;28;20201;-89
2024/01/25 06:23:17;;;;;;;21.10;3.90;;;7.00;99.90;;;;;;5036997;28;20324;-90
2024/01/25 06:25:42;;;;;;;18.77;3.43;;;7.10;99.90;;;;;;5035555;28;20507;-89
2024/01/25 06:28:09;;;;;;;20.97;3.57;;;7.10;99.90;;;;;;5028559;28;20194;-90
2024/01/25 06:30:34;;;;;;;29.37;4.43;;;6.90;99.90;;;;;;5036806;28;20186;-89
2024/01/25 06:33:00;;;;;;;21.70;3.50;;;7.00;99.90;;;;;;5037573;28;20580;-91
2024/01/25 06:35:26;;;;;;;25.40;4.77;;;7.00;99.90;;;;;;5030427;28;20193;-89
2024/01/25 06:37:51;;;;;;;21.87;3.90;;;6.90;99.90;;;;;;5016504;28;20187;-88
2024/01/25 06:40:17;;;;;;;25.33;3.80;;;6.90;99.90;;;;;;5025021;28;20198;-90
2024/01/25 06:42:44;;;;;;;24.27;4.47;;;7.00;99.90;;;;;;5014835;28;20215;-91
2024/01/25 06:45:10;;;;;;;20.63;3.50;;;7.00;99.90;;;;;;5020466;28;20195;-91
2024/01/25 06:47:36;;;;;;;25.47;5.03;;;7.00;99.90;;;;;;5036041;28;20609;-90
2024/01/25 06:50:02;;;;;;;29.73;3.60;;;6.90;99.90;;;;;;5037229;28;20593;-89
2024/01/25 06:52:33;;;;;;;29.33;4.33;;;6.90;99.90;;;;;;5036324;28;20186;-89
2024/01/25 06:54:58;;;;;;;24.90;3.43;;;7.00;99.90;;;;;;5036060;28;20194;-89
2024/01/25 06:57:24;;;;;;;28.30;4.30;;;6.90;99.90;;;;;;5035561;28;20715;-89
2024/01/25 06:59:50;;;;;;;22.47;3.60;;;6.90;99.90;;;;;;5036152;28;20241;-89
2024/01/25 07:02:16;;;;;;;28.13;4.77;;;6.90;99.90;;;;;;5035698;28;20218;-89
2024/01/25 07:04:41;;;;;;;22.33;3.50;;;6.90;99.90;;;;;;5035411;28;20187;-92
2024/01/25 07:07:07;;;;;;;22.67;3.63;;;6.90;99.90;;;;;;5033469;28;20222;-90
2024/01/25 07:09:33;;;;;;;19.40;3.67;;;6.80;99.90;;;;;;5031449;28;20210;-89
2024/01/25 07:12:06;;;;;;;28.40;4.47;;;6.80;99.90;;;;;;5035550;28;20195;-90
2024/01/25 07:14:32;;;;;;;11.67;3.40;;;6.90;99.90;;;;;;5035401;28;20541;-89
2024/01/25 07:16:58;;;;;;;20.77;3.90;;;6.80;99.90;;;;;;5033352;28;20186;-88
2024/01/25 07:19:24;;;;;;;27.57;4.00;;;6.80;99.90;;;;;;5029828;28;20625;-89
2024/01/25 07:21:52;;;;;;;21.37;4.17;;;6.80;99.90;;;;;;5027075;28;20685;-88
2024/01/25 07:24:17;;;;;;;19.67;3.80;;;6.80;99.90;;;;;;5035884;28;20183;-94
2024/01/25 07:26:43;;;;;;;25.73;4.93;;;6.90;99.90;;;;;;5033722;28;20531;-89
2024/01/25 07:29:09;;;;;;;29.70;4.70;;;6.90;99.90;;;;;;5019433;28;20235;-89
2024/01/25 07:31:36;;;;;;;27.33;4.23;;;6.80;99.90;;;;;;5035219;28;20190;-87
2024/01/25 07:34:02;;;;;;;23.40;3.90;;;6.90;99.90;;;;;;5035098;28;20224;-89
2024/01/25 07:36:27;;;;;;;20.73;3.60;;;6.80;99.90;;;;;;5035169;28;20185;-88
2024/01/25 07:38:53;;;;;;;22.20;3.80;;;6.80;99.90;;;;;;5036332;28;20228;-90
2024/01/25 07:41:19;;;;;;;21.83;4.23;;;6.90;99.90;;;;;;5030757;28;20187;-90
2024/01/25 07:43:47;;;;;;;22.53;4.37;;;6.90;99.90;;;;;;5023533;28;20228;-89
2024/01/25 07:46:14;;;;;;;30.33;4.33;;;6.90;99.90;;;;;;5035920;28;20239;-90
2024/01/25 07:48:40;;;;;;;17.33;4.00;;;7.00;99.90;;;;;;5034713;28;20281;-89
2024/01/25 07:51:13;;;;;;;22.33;3.87;;;6.90;99.90;;;;;;5035064;28;20206;-92
2024/01/25 07:53:42;;;;;;;23.17;5.20;;;6.90;99.90;;;;;;5026779;28;20691;-89
2024/01/25 07:56:08;;;;;;;21.20;4.10;;;7.00;99.90;;;;;;5015046;28;20273;-89
2024/01/25 07:58:37;;;;;;;24.07;3.77;;;7.00;99.90;;;;;;5029741;28;20240;-90
2024/01/25 08:01:07;;;;;;;25.97;4.20;;;6.90;99.90;;;;;;5035557;28;20194;-91
2024/01/25 08:03:33;;;;;;;24.40;3.83;;;7.00;99.90;;;;;;5035781;28;20186;-89
2024/01/25 08:06:00;;;;;;;27.27;4.27;;;6.90;99.90;;;;;;5018101;28;20194;-89
2024/01/25 08:08:26;;;;;;;16.00;3.83;;;6.90;99.90;;;;;;5021194;28;20618;-89
2024/01/25 08:10:51;;;;;;;25.83;4.07;;;6.90;99.90;;;;;;5032282;28;20217;-88
2024/01/25 08:13:23;;;;;;;17.83;4.00;;;7.00;99.90;;;;;;5026335;28;20527;-93
2024/01/25 08:15:50;;;;;;;19.10;4.07;;;7.00;99.90;;;;;;5034827;28;20320;-91
2024/01/25 08:18:15;;;;;;;14.30;3.67;;;7.00;99.90;;;;;;5034704;28;20182;-90
2024/01/25 08:20:41;;;;;;;26.67;4.23;;;7.00;99.90;;;;;;5017308;28;20191;-90
2024/01/25 08:23:08;;;;;;;28.13;4.30;;;7.00;99.90;;;;;;5017770;28;20257;-90
2024/01/25 08:25:34;;;;;;;21.07;5.80;;;7.00;99.90;;;;;;5033891;28;20186;-89
2024/01/25 08:28:00;;;;;;;20.83;4.97;;;6.90;99.90;;;;;;5032842;28;20217;-90
2024/01/25 08:30:26;;;;;;;24.80;5.43;;;7.00;99.90;;;;;;5026224;28;20182;-90
2024/01/25 08:32:55;;;;;;;21.13;4.60;;;6.90;99.90;;;;;;5033953;28;20538;-88
2024/01/25 08:35:21;;;;;;;23.00;5.00;;;6.90;99.90;;;;;;5021083;28;20186;-93
2024/01/25 08:37:48;;;;;;;28.53;4.53;;;7.00;99.90;;;;;;5025524;28;20580;-94
2024/01/25 08:40:13;;;;;;;19.83;3.80;;;6.90;99.90;;;;;;5019339;28;20190;-93
2024/01/25 08:42:43;;;;;;;23.37;3.83;;;7.00;99.90;;;;;;5033985;28;20237;-93
2024/01/25 08:45:09;;;;;;;24.83;4.30;;;7.00;99.90;;;;;;5034446;28;20185;-91
2024/01/25 08:47:36;;;;;;;20.50;4.33;;;7.00;99.90;;;;;;5034616;28;20186;-92
2024/01/25 08:50:03;;;;;;;19.17;3.87;;;7.00;99.90;;;;;;5023121;28;20642;-92
2024/01/25 08:52:29;;;;;;;19.13;3.90;;;7.00;99.90;;;;;;5029366;28;20700;-90
2024/01/25 08:54:55;;;;;;;20.77;4.07;;;6.90;99.90;;;;;;5032222;28;20229;-91
2024/01/25 08:57:21;;;;;;;28.80;4.50;;;6.90;99.90;;;;;;5027243;28;20257;-93
2024/01/25 08:59:46;;;;;;;28.20;4.50;;;6.90;99.90;;;;;;5032758;28;20683;-91
2024/01/25 09:02:13;;;;;;;22.40;4.40;;;6.90;99.90;;;;;;5014021;28;20213;-91
2024/01/25 09:04:42;;;;;;;20.93;3.90;;;6.90;99.90;;;;;;5021520;28;20247;-90
2024/01/25 09:07:09;;;;;;;20.70;4.23;;;6.90;99.90;;;;;;5030930;28;20626;-91
2024/01/25 09:09:34;;;;;;;22.63;5.13;;;7.00;99.90;;;;;;5029420;28;20186;-92
2024/01/25 09:12:00;;;;;;;32.27;4.47;;;7.00;99.90;;;;;;5033669;28;20190;-90
2024/01/25 09:14:28;;;;;;;26.13;4.80;;;6.90;99.90;;;;;;5035008;28;20178;-92
2024/01/25 09:16:53;;;;;;;19.40;3.80;;;7.00;99.90;;;;;;5032688;28;20511;-90
2024/01/25 09:19:19;;;;;;;23.13;3.67;;;7.00;99.90;;;;;;5026893;28;20246;-90
2024/01/25 09:21:46;;;;;;;22.07;3.73;;;7.00;99.90;;;;;;5025311;28;20211;-91
2024/01/25 09:24:11;;;;;;;21.70;5.40;;;7.10;99.90;;;;;;5014535;28;20209;-94
2024/01/25 09:26:37;;;;;;;29.00;4.13;;;7.00;99.90;;;;;;5020805;28;20639;-93
2024/01/25 09:29:03;;;;;;;18.27;4.13;;;7.00;99.90;;;;;;5030861;28;20187;-91
2024/01/25 09:31:29;;;;;;;29.50;5.87;;;7.00;99.90;;;;;;5028992;28;20194;-91
2024/01/25 09:33:57;;;;;;;32.57;5.83;;;7.10;99.90;;;;;;5027282;28;20197;-93
2024/01/25 09:36:23;;;;;;;22.13;4.10;;;7.00;99.90;;;;;;5034301;28;20652;-92
2024/01/25 09:38:49;;;;;;;30.03;5.23;;;7.00;99.90;;;;;;5026565;28;20191;-92
2024/01/25 09:41:15;;;;;;;19.57;4.13;;;7.00;99.90;;;;;;5033444;28;20614;-93
2024/01/25 09:44:00;;;;;;;34.00;4.70;;;7.00;99.90;;;;;;5033771;28;20191;-91
2024/01/25 09:46:27;;;;;;;25.00;4.30;;;7.10;99.90;;;;;;5028036;28;20626;-89
2024/01/25 09:48:53;;;;;;;34.97;6.20;;;7.00;99.90;;;;;;5030635;28;20187;-90
2024/01/25 09:51:23;;;;;;;25.43;4.53;;;7.10;99.90;;;;;;5012779;28;20503;-91
2024/01/25 09:53:53;;;;;;;27.90;4.17;;;7.10;99.90;;;;;;5031033;28;20184;-91
2024/01/25 09:56:21;;;;;;;29.07;5.20;;;7.10;99.90;;;;;;5009088;28;20588;-91
2024/01/25 09:58:47;;;;;;;29.60;3.87;;;7.20;99.90;;;;;;5025507;28;20325;-91
2024/01/25 10:01:15;;;;;;;28.97;5.10;;;7.20;99.90;;;;;;5033732;28;20187;-91
2024/01/25 10:03:51;;;;;;;28.90;4.83;;;7.20;99.90;;;;;;5033457;28;20277;-90
2024/01/25 10:06:17;;;;;;;28.47;4.63;;;7.20;99.90;;;;;;5026033;28;20609;-90
2024/01/25 10:08:44;;;;;;;21.17;4.13;;;7.20;99.90;;;;;;5033631;28;20236;-91
2024/01/25 10:11:13;;;;;;;22.23;4.53;;;7.30;99.90;;;;;;5017415;28;20183;-91
2024/01/25 10:13:42;;;;;;;26.60;4.43;;;7.10;99.90;;;;;;5025095;28;20193;-90
2024/01/25 10:16:16;;;;;;;27.83;4.37;;;7.30;99.90;;;;;;5033543;28;20195;-91
2024/01/25 10:18:43;;;;;;;18.20;3.70;;;7.30;99.90;;;;;;5036241;28;20253;-91
2024/01/25 10:21:13;;;;;;;27.77;4.30;;;7.30;99.90;;;;;;5033083;28;20214;-91
2024/01/25 10:23:40;;;;;;;20.97;4.30;;;7.30;99.90;;;;;;5024949;28;20225;-91
2024/01/25 10:26:08;;;;;;;23.37;4.70;;;7.30;99.90;;;;;;5030085;28;21023;-92
2024/01/25 10:28:34;;;;;;;30.40;5.20;;;7.40;99.90;;;;;;5036733;28;20194;-92
2024/01/25 10:31:02;;;;;;;23.93;5.13;;;7.40;99.90;;;;;;5029767;28;20263;-89
2024/01/25 10:33:28;;;;;;;31.67;5.13;;;7.40;99.90;;;;;;5037847;28;20219;-89
2024/01/25 10:36:13;;;;;;;26.03;4.77;;;7.30;99.90;;;;;;5026900;28;20198;-91
2024/01/25 10:38:41;;;;;;;16.13;3.17;;;7.40;99.90;;;;;;5033351;28;20505;-93
2024/01/25 10:41:07;;;;;;;26.83;4.27;;;7.40;99.90;;;;;;5036204;28;20182;-90
2024/01/25 10:43:33;;;;;;;22.47;4.30;;;7.40;99.90;;;;;;5036262;28;20304;-89
2024/01/25 10:46:07;;;;;;;25.13;4.30;;;7.40;99.90;;;;;;5036871;28;20190;-90
2024/01/25 10:48:33;;;;;;;23.80;4.20;;;7.40;99.90;;;;;;5029411;28;20618;-91
2024/01/25 10:51:02;;;;;;;24.97;5.10;;;7.50;99.90;;;;;;5034981;28;20193;-89
2024/01/25 10:53:32;;;;;;;21.13;3.40;;;7.50;99.90;;;;;;5030063;28;20218;-92
2024/01/25 10:55:58;;;;;;;28.47;4.40;;;7.50;99.90;;;;;;5026419;28;20564;-89
2024/01/25 10:58:24;;;;;;;18.60;4.00;;;7.50;99.90;;;;;;5030509;28;20195;-90
2024/01/25 11:01:01;;;;;;;17.37;4.07;;;7.50;99.90;;;;;;5017311;28;20538;-91
2024/01/25 11:03:28;;;;;;;24.63;4.60;;;7.50;99.90;;;;;;5035881;28;20218;-91
2024/01/25 11:06:20;;;;;;;22.80;4.77;;;7.50;99.90;;;;;;5035936;28;20289;-88
2024/01/25 11:08:45;;;;;;;27.43;4.80;;;7.40;99.90;;;;;;5035678;28;20531;-92
2024/01/25 11:11:14;;;;;;;22.80;4.00;;;7.50;99.90;;;;;;5035347;28;20190;-90
2024/01/25 11:13:44;;;;;;;21.23;4.20;;;7.40;99.90;;;;;;5036686;28;20179;-90
2024/01/25 11:16:29;;;;;;;21.67;3.83;;;7.30;99.90;;;;;;5027632;28;20190;-88
2024/01/25 11:18:59;;;;;;;21.13;4.13;;;7.40;99.90;;;;;;5035533;28;20183;-90
2024/01/25 11:21:47;;;;;;;23.57;3.87;;;7.20;99.90;;;;;;5035579;28;20187;-91
2024/01/25 11:24:14;;;;;;;21.30;3.10;;;7.30;99.90;;;;;;5035542;28;20248;-90
2024/01/25 11:26:44;;;;;;;15.50;3.60;;;7.30;99.90;;;;;;5027525;28;20206;-89
2024/01/25 11:29:15;;;;;;;24.50;4.33;;;7.30;99.90;;;;;;5034950;28;20190;-90
2024/01/25 11:31:42;;;;;;;18.63;4.03;;;7.30;99.90;;;;;;5019369;28;20205;-90
2024/01/25 11:34:11;;;;;;;21.30;4.37;;;7.40;99.90;;;;;;5027504;28;20531;-89
2024/01/25 11:36:46;;;;;;;17.17;4.10;;;7.40;99.90;;;;;;5027231;28;20225;-90
2024/01/25 11:39:13;;;;;;;15.77;4.17;;;7.40;99.90;;;;;;5035295;28;20728;-90
2024/01/25 11:41:39;;;;;;;12.73;2.87;;;7.50;99.90;;;;;;5034795;28;20301;-90
2024/01/25 11:44:05;;;;;;;49.93;7.00;;;7.60;99.90;;;;;;5035110;28;20248;-90
2024/01/25 11:46:35;;;;;;;22.43;5.23;;;7.70;99.90;;;;;;5035329;28;20236;-91
2024/01/25 11:49:01;;;;;;;23.57;4.53;;;7.60;99.90;;;;;;5035114;28;20186;-90
2024/01/25 11:51:27;;;;;;;32.53;4.83;;;7.70;99.90;;;;;;5035041;28;20217;-90
2024/01/25 11:53:53;;;;;;;23.37;3.93;;;7.70;99.90;;;;;;5026676;28;20232;-91
2024/01/25 11:56:26;;;;;;;21.87;3.80;;;7.80;99.90;;;;;;5027214;28;20256;-90
2024/01/25 11:58:53;;;;;;;23.93;4.47;;;7.70;99.90;;;;;;5026750;28;20205;-89
2024/01/25 12:01:20;;;;;;;19.60;4.30;;;7.70;99.90;;;;;;5034749;28;20669;-89
2024/01/25 12:03:45;;;;;;;15.87;3.67;;;7.70;99.90;;;;;;5018321;28;20195;-90
2024/01/25 12:06:18;;;;;;;17.83;3.73;;;7.70;99.90;;;;;;5034867;28;20197;-89
2024/01/25 12:08:44;;;;;;;21.40;4.43;;;7.80;99.90;;;;;;5034620;28;20194;-90
2024/01/25 12:11:11;;;;;;;21.27;4.03;;;7.80;99.90;;;;;;5034452;28;20640;-90
2024/01/25 12:13:40;;;;;;;15.37;3.17;;;7.70;99.90;;;;;;5034578;28;20205;-91
2024/01/25 12:16:08;;;;;;;21.23;4.30;;;7.70;99.90;;;;;;5034553;28;20640;-90
2024/01/25 12:18:37;;;;;;;16.07;3.30;;;7.60;99.90;;;;;;5020260;28;20261;-91
2024/01/25 12:21:04;;;;;;;17.90;4.03;;;7.60;99.90;;;;;;5032750;28;20198;-90
2024/01/25 12:23:40;;;;;;;21.57;4.40;;;7.60;99.90;;;;;;5019540;28;20223;-90
2024/01/25 12:26:24;;;;;;;20.97;4.20;;;7.70;99.90;;;;;;5027512;28;20185;-87
2024/01/25 12:28:50;;;;;;;18.50;4.30;;;7.70;99.90;;;;;;5026179;28;20187;-90
2024/01/25 12:31:16;;;;;;;16.83;3.93;;;7.70;99.90;;;;;;5029983;28;20606;-89
2024/01/25 12:33:42;;;;;;;23.93;5.00;;;7.60;99.90;;;;;;5031855;28;20257;-89
2024/01/25 12:36:09;;;;;;;19.77;3.67;;;7.80;99.90;;;;;;5026447;28;20621;-90
2024/01/25 12:38:35;;;;;;;20.83;4.13;;;7.70;99.90;;;;;;5034263;28;20190;-90
2024/01/25 12:41:02;;;;;;;21.47;4.23;;;7.70;99.90;;;;;;5033105;28;20190;-88
2024/01/25 12:43:29;;;;;;;15.80;3.83;;;7.80;99.90;;;;;;5034093;28;20320;-89
2024/01/25 12:46:05;;;;;;;16.33;4.10;;;7.80;99.90;;;;;;5026031;28;20193;-90
2024/01/25 12:48:30;;;;;;;16.93;3.97;;;7.90;99.90;;;;;;5034061;28;20190;-87
2024/01/25 12:50:56;;;;;;;23.63;4.37;;;8.00;99.90;;;;;;5017673;28;20183;-89